Time;durP1;ratioP1;P1;durP2;ratioP2;P2;SDS_P1;SDS_P2;PMS_P1;PMS_P2;Temp;Humidity;BMP_temperature;BMP_pressure;BME280_temperature;BME280_humidity;BME280_pressure;Samples;Min_cycle;Max_cycle;Signal;HPM_P1;HPM_P2
2023/07/25 00:00:00;;;;;;;0.47;0.47;;;;;;;;;;5086964;28;42131;-64
2023/07/25 00:02:28;;;;;;;0.35;0.32;;;;;;;;;;5104750;28;43102;-64
2023/07/25 00:04:56;;;;;;;0.43;0.30;;;;;;;;;;5106720;27;42370;-64
2023/07/25 00:07:24;;;;;;;0.80;0.30;;;;;;;;;;5106695;27;42531;-64
2023/07/25 00:09:52;;;;;;;0.82;0.40;;;;;;;;;;5105931;27;41258;-64
2023/07/25 00:12:20;;;;;;;0.50;0.40;;;;;;;;;;5106392;27;42029;-64
2023/07/25 00:14:48;;;;;;;0.40;0.40;;;;;;;;;;5106430;27;41308;-64
2023/07/25 00:17:17;;;;;;;0.30;0.30;;;;;;;;;;5106240;27;41760;-64
2023/07/25 00:19:45;;;;;;;2.22;0.40;;;;;;;;;;5106210;27;42625;-64
2023/07/25 00:22:13;;;;;;;0.30;0.30;;;;;;;;;;5106437;27;41866;-64
2023/07/25 00:24:41;;;;;;;0.45;0.30;;;;;;;;;;5106376;27;42724;-64
2023/07/25 00:27:09;;;;;;;0.35;0.30;;;;;;;;;;5106745;27;42043;-64
2023/07/25 00:29:37;;;;;;;0.30;0.30;;;;;;;;;;5103467;27;41346;-64
2023/07/25 00:32:05;;;;;;;0.68;0.35;;;;;;;;;;5109969;27;42770;-64
2023/07/25 00:34:35;;;;;;;0.70;0.30;;;;;;;;;;5109009;28;41881;-64
2023/07/25 00:37:03;;;;;;;0.35;0.25;;;;;;;;;;5109534;28;41323;-64
2023/07/25 00:39:31;;;;;;;0.45;0.25;;;;;;;;;;5124837;27;40283;-64
2023/07/25 00:41:59;;;;;;;0.30;0.30;;;;;;;;;;5108780;28;40190;-64
2023/07/25 00:44:27;;;;;;;0.57;0.40;;;;;;;;;;5108770;28;41915;-64
2023/07/25 00:46:55;;;;;;;0.45;0.35;;;;;;;;;;5110090;28;41597;-64
2023/07/25 00:49:23;;;;;;;0.55;0.40;;;;;;;;;;5107980;28;40410;-64
2023/07/25 00:51:52;;;;;;;1.20;0.40;;;;;;;;;;5108966;27;42421;-64
2023/07/25 00:54:20;;;;;;;0.50;0.30;;;;;;;;;;5107775;28;39906;-64
2023/07/25 00:56:48;;;;;;;0.47;0.35;;;;;;;;;;5109569;28;42620;-64
2023/07/25 00:59:16;;;;;;;0.40;0.38;;;;;;;;;;5109321;28;42116;-64
2023/07/25 01:01:44;;;;;;;0.38;0.30;;;;;;;;;;5109392;28;42029;-64
2023/07/25 01:04:12;;;;;;;1.33;0.40;;;;;;;;;;5110067;28;42165;-64
2023/07/25 01:06:40;;;;;;;0.40;0.30;;;;;;;;;;5108510;28;41204;-64
2023/07/25 01:09:10;;;;;;;1.00;0.30;;;;;;;;;;5109394;27;41688;-64
2023/07/25 01:11:38;;;;;;;0.30;0.20;;;;;;;;;;5108349;28;42236;-64
2023/07/25 01:14:05;;;;;;;0.50;0.50;;;;;;;;;;5109446;28;42393;-64
2023/07/25 01:16:33;;;;;;;1.20;0.30;;;;;;;;;;5108995;28;42363;-64
2023/07/25 01:19:01;;;;;;;0.82;0.30;;;;;;;;;;5108563;28;42018;-65
2023/07/25 01:21:29;;;;;;;0.93;0.20;;;;;;;;;;5107328;28;39924;-64
2023/07/25 01:24:00;;;;;;;0.93;0.30;;;;;;;;;;5109516;28;42786;-65
2023/07/25 01:26:29;;;;;;;0.30;0.30;;;;;;;;;;5107275;28;40707;-64
2023/07/25 01:28:57;;;;;;;1.85;0.30;;;;;;;;;;5109134;28;42796;-64
2023/07/25 01:31:25;;;;;;;0.80;0.30;;;;;;;;;;5124210;27;40937;-64
2023/07/25 01:33:53;;;;;;;0.30;0.20;;;;;;;;;;5104484;28;40677;-64
2023/07/25 01:36:21;;;;;;;0.28;0.25;;;;;;;;;;5104851;28;42094;-64
2023/07/25 01:38:49;;;;;;;0.40;0.40;;;;;;;;;;5088512;28;43116;-64
2023/07/25 01:41:18;;;;;;;0.32;0.25;;;;;;;;;;5087756;28;42076;-64
2023/07/25 01:43:46;;;;;;;0.63;0.30;;;;;;;;;;5087966;28;42670;-65
2023/07/25 01:46:14;;;;;;;0.38;0.20;;;;;;;;;;5087221;28;41796;-64
2023/07/25 01:48:42;;;;;;;0.30;0.30;;;;;;;;;;5087565;28;41905;-65
2023/07/25 01:51:10;;;;;;;0.90;0.30;;;;;;;;;;5088331;28;43488;-64
2023/07/25 01:53:38;;;;;;;0.60;0.30;;;;;;;;;;5087354;28;41406;-64
2023/07/25 01:56:06;;;;;;;0.40;0.30;;;;;;;;;;5102695;28;41762;-64
2023/07/25 01:58:36;;;;;;;0.43;0.20;;;;;;;;;;5106763;28;40919;-64
2023/07/25 02:01:04;;;;;;;0.40;0.30;;;;;;;;;;5106122;28;40216;-64
2023/07/25 02:03:32;;;;;;;0.20;0.20;;;;;;;;;;5107712;28;41890;-64
2023/07/25 02:06:00;;;;;;;0.55;0.28;;;;;;;;;;5108873;28;42144;-65
2023/07/25 02:08:28;;;;;;;0.28;0.20;;;;;;;;;;5123155;27;40713;-64
2023/07/25 02:10:56;;;;;;;0.30;0.30;;;;;;;;;;5109433;28;41256;-64
2023/07/25 02:13:24;;;;;;;0.80;0.30;;;;;;;;;;5108413;28;41993;-64
2023/07/25 02:15:53;;;;;;;0.40;0.30;;;;;;;;;;5123061;27;40883;-64
2023/07/25 02:18:21;;;;;;;0.93;0.30;;;;;;;;;;5108333;28;43142;-64
2023/07/25 02:20:49;;;;;;;0.60;0.30;;;;;;;;;;5106722;28;39992;-64
2023/07/25 02:23:19;;;;;;;0.30;0.20;;;;;;;;;;5106130;28;40214;-64
2023/07/25 02:25:49;;;;;;;0.68;0.30;;;;;;;;;;5106221;28;40429;-64
2023/07/25 02:28:17;;;;;;;0.20;0.20;;;;;;;;;;5107997;28;41907;-64
2023/07/25 02:30:45;;;;;;;0.30;0.20;;;;;;;;;;5105108;28;40340;-64
2023/07/25 02:33:15;;;;;;;0.50;0.20;;;;;;;;;;5108633;28;42112;-65
2023/07/25 02:35:43;;;;;;;0.28;0.20;;;;;;;;;;5108214;28;41821;-64
2023/07/25 02:38:11;;;;;;;1.05;0.50;;;;;;;;;;5107818;28;43097;-64
2023/07/25 02:40:43;;;;;;;0.40;0.30;;;;;;;;;;5107604;27;40942;-64
2023/07/25 02:43:11;;;;;;;1.50;0.30;;;;;;;;;;5122698;27;40813;-64
2023/07/25 02:45:39;;;;;;;0.55;0.40;;;;;;;;;;5105933;28;40767;-64
2023/07/25 02:48:07;;;;;;;0.20;0.20;;;;;;;;;;5108182;28;41314;-64
2023/07/25 02:50:37;;;;;;;0.22;0.20;;;;;;;;;;5105383;28;40262;-65
2023/07/25 02:53:05;;;;;;;0.50;0.22;;;;;;;;;;5107837;27;43065;-64
2023/07/25 02:55:33;;;;;;;0.38;0.20;;;;;;;;;;5122130;27;40541;-64
2023/07/25 02:58:01;;;;;;;0.52;0.38;;;;;;;;;;5098016;27;41771;-64
2023/07/25 03:00:29;;;;;;;0.20;0.20;;;;;;;;;;5085242;28;40762;-64
2023/07/25 03:02:57;;;;;;;0.40;0.20;;;;;;;;;;5098322;28;41397;-64
2023/07/25 03:05:26;;;;;;;0.20;0.20;;;;;;;;;;5105605;28;41713;-64
2023/07/25 03:07:56;;;;;;;0.20;0.20;;;;;;;;;;5107526;28;42302;-64
2023/07/25 03:10:24;;;;;;;0.52;0.20;;;;;;;;;;5107524;27;41984;-64
2023/07/25 03:12:52;;;;;;;0.20;0.20;;;;;;;;;;5105540;28;40612;-64
2023/07/25 03:15:20;;;;;;;0.57;0.50;;;;;;;;;;5107630;28;41619;-64
2023/07/25 03:17:48;;;;;;;1.08;0.30;;;;;;;;;;5107425;28;42103;-64
2023/07/25 03:20:16;;;;;;;0.55;0.20;;;;;;;;;;5105148;28;41127;-64
2023/07/25 03:22:44;;;;;;;0.77;0.30;;;;;;;;;;5107360;28;41843;-64
2023/07/25 03:25:14;;;;;;;0.20;0.20;;;;;;;;;;5106835;27;41765;-64
2023/07/25 03:27:42;;;;;;;1.17;0.20;;;;;;;;;;5122833;27;41135;-64
2023/07/25 03:30:10;;;;;;;0.20;0.20;;;;;;;;;;5122583;27;40202;-64
2023/07/25 03:32:38;;;;;;;0.20;0.20;;;;;;;;;;5111194;27;40782;-64
2023/07/25 03:35:07;;;;;;;0.20;0.20;;;;;;;;;;5106778;27;41405;-64
2023/07/25 03:37:35;;;;;;;0.20;0.15;;;;;;;;;;5107093;28;41894;-64
2023/07/25 03:40:03;;;;;;;0.20;0.20;;;;;;;;;;5100958;28;42209;-64
2023/07/25 03:42:32;;;;;;;0.50;0.40;;;;;;;;;;5084693;28;40323;-65
2023/07/25 03:45:00;;;;;;;0.30;0.30;;;;;;;;;;5086828;28;42806;-64
2023/07/25 03:47:28;;;;;;;0.30;0.30;;;;;;;;;;5083790;28;39630;-65
2023/07/25 03:49:56;;;;;;;0.20;0.20;;;;;;;;;;5085303;28;40127;-64
2023/07/25 03:52:24;;;;;;;0.22;0.20;;;;;;;;;;5084715;28;40664;-64
2023/07/25 03:54:52;;;;;;;0.20;0.20;;;;;;;;;;5087907;28;40843;-64
2023/07/25 03:57:20;;;;;;;0.20;0.20;;;;;;;;;;5109200;27;41179;-64
2023/07/25 03:59:49;;;;;;;0.38;0.30;;;;;;;;;;5105764;28;40896;-64
2023/07/25 04:02:17;;;;;;;0.20;0.20;;;;;;;;;;5105247;27;41173;-64
2023/07/25 04:04:45;;;;;;;0.63;0.30;;;;;;;;;;5107045;27;42635;-64
2023/07/25 04:07:13;;;;;;;0.40;0.20;;;;;;;;;;5110933;28;41207;-64
2023/07/25 04:09:41;;;;;;;0.45;0.30;;;;;;;;;;5108620;28;40979;-64
2023/07/25 04:12:09;;;;;;;0.20;0.20;;;;;;;;;;5110664;28;42124;-64
2023/07/25 04:14:37;;;;;;;0.20;0.20;;;;;;;;;;5108823;28;42317;-64
2023/07/25 04:17:07;;;;;;;0.20;0.20;;;;;;;;;;5109200;28;40718;-64
2023/07/25 04:19:35;;;;;;;0.20;0.20;;;;;;;;;;5109676;28;43261;-64
2023/07/25 04:22:03;;;;;;;0.15;0.15;;;;;;;;;;5108651;28;39816;-64
2023/07/25 04:24:31;;;;;;;0.68;0.20;;;;;;;;;;5109862;28;42770;-64
2023/07/25 04:26:59;;;;;;;0.95;0.30;;;;;;;;;;5109636;27;40855;-64
2023/07/25 04:29:27;;;;;;;0.20;0.20;;;;;;;;;;5108599;28;41859;-64
2023/07/25 04:31:55;;;;;;;0.50;0.30;;;;;;;;;;5109787;27;42254;-64
2023/07/25 04:34:25;;;;;;;0.75;0.32;;;;;;;;;;5109506;27;40965;-64
2023/07/25 04:36:53;;;;;;;0.25;0.20;;;;;;;;;;5109545;28;42321;-64
2023/07/25 04:39:21;;;;;;;0.20;0.20;;;;;;;;;;5110099;28;42871;-64
2023/07/25 04:41:49;;;;;;;0.30;0.30;;;;;;;;;;5108141;28;39907;-64
2023/07/25 04:44:17;;;;;;;0.30;0.30;;;;;;;;;;5109582;28;41478;-65
2023/07/25 04:46:45;;;;;;;1.02;0.35;;;;;;;;;;5109995;28;41243;-64
2023/07/25 04:49:13;;;;;;;0.30;0.30;;;;;;;;;;5125603;27;41565;-64
2023/07/25 04:51:42;;;;;;;0.55;0.30;;;;;;;;;;5108901;28;43116;-64
2023/07/25 04:54:10;;;;;;;0.20;0.20;;;;;;;;;;5102249;28;40962;-64
2023/07/25 04:56:40;;;;;;;0.47;0.20;;;;;;;;;;5105417;28;41475;-64
2023/07/25 04:59:08;;;;;;;0.30;0.20;;;;;;;;;;5110019;28;43728;-64
2023/07/25 05:01:37;;;;;;;0.82;0.28;;;;;;;;;;5107203;27;42194;-64
2023/07/25 05:04:05;;;;;;;0.20;0.20;;;;;;;;;;5105700;28;41550;-64
2023/07/25 05:06:33;;;;;;;0.20;0.20;;;;;;;;;;5106673;27;41405;-64
2023/07/25 05:09:03;;;;;;;0.65;0.30;;;;;;;;;;5104319;27;41591;-64
2023/07/25 05:11:31;;;;;;;0.30;0.30;;;;;;;;;;5101767;27;43145;-64
2023/07/25 05:14:00;;;;;;;0.40;0.20;;;;;;;;;;5104047;28;41303;-64
2023/07/25 05:16:28;;;;;;;0.30;0.30;;;;;;;;;;5108261;27;41757;-64
2023/07/25 05:18:56;;;;;;;0.30;0.30;;;;;;;;;;5108755;27;43253;-64
2023/07/25 05:21:23;;;;;;;0.65;0.30;;;;;;;;;;5109093;27;40867;-65
2023/07/25 05:23:51;;;;;;;0.43;0.30;;;;;;;;;;5102907;27;41475;-64
2023/07/25 05:26:21;;;;;;;0.20;0.20;;;;;;;;;;5102691;27;41554;-64
2023/07/25 05:28:49;;;;;;;0.70;0.30;;;;;;;;;;5101618;27;42489;-65
2023/07/25 05:31:17;;;;;;;0.20;0.20;;;;;;;;;;5099094;28;42050;-64
2023/07/25 05:33:45;;;;;;;0.20;0.20;;;;;;;;;;5092734;28;42362;-64
2023/07/25 05:36:13;;;;;;;0.20;0.20;;;;;;;;;;5099514;27;41923;-64
2023/07/25 05:38:41;;;;;;;0.30;0.30;;;;;;;;;;5098738;27;43079;-64
2023/07/25 05:41:09;;;;;;;1.58;0.20;;;;;;;;;;5103434;28;41956;-64
2023/07/25 05:43:38;;;;;;;0.30;0.25;;;;;;;;;;5101800;27;41864;-64
2023/07/25 05:46:07;;;;;;;0.22;0.22;;;;;;;;;;5101304;28;41500;-65
2023/07/25 05:48:35;;;;;;;0.65;0.20;;;;;;;;;;5098110;27;40753;-64
2023/07/25 05:51:03;;;;;;;0.20;0.20;;;;;;;;;;5103268;28;42678;-64
2023/07/25 05:53:31;;;;;;;0.20;0.20;;;;;;;;;;5108181;27;42779;-65
2023/07/25 05:55:59;;;;;;;0.35;0.20;;;;;;;;;;5108463;27;41603;-64
2023/07/25 05:58:27;;;;;;;0.20;0.20;;;;;;;;;;5108830;27;42690;-64
2023/07/25 06:00:56;;;;;;;0.20;0.20;;;;;;;;;;5108055;27;42213;-66
2023/07/25 06:03:24;;;;;;;0.20;0.20;;;;;;;;;;5101192;27;42404;-64
2023/07/25 06:05:52;;;;;;;0.20;0.20;;;;;;;;;;5093373;27;42672;-64
2023/07/25 06:08:20;;;;;;;0.20;0.20;;;;;;;;;;5091045;28;41870;-64
2023/07/25 06:10:48;;;;;;;0.47;0.20;;;;;;;;;;5103250;28;41438;-64
2023/07/25 06:13:16;;;;;;;0.80;0.20;;;;;;;;;;5107269;28;40816;-64
2023/07/25 06:15:44;;;;;;;0.20;0.20;;;;;;;;;;5100797;28;40734;-64
2023/07/25 06:18:14;;;;;;;0.20;0.20;;;;;;;;;;5099523;28;42153;-70
2023/07/25 06:20:42;;;;;;;9.52;2.28;;;;;;;;;;5087463;28;41992;-64
2023/07/25 06:23:10;;;;;;;7.20;2.70;;;;;;;;;;5087050;28;41678;-64
2023/07/25 06:25:38;;;;;;;7.53;2.72;;;;;;;;;;5088120;28;43141;-64
2023/07/25 06:28:06;;;;;;;8.02;3.08;;;;;;;;;;5086198;28;41305;-64
2023/07/25 06:30:34;;;;;;;11.18;3.00;;;;;;;;;;5087160;28;42250;-64
2023/07/25 06:33:02;;;;;;;7.88;2.55;;;;;;;;;;5097696;28;42085;-65
2023/07/25 06:35:31;;;;;;;10.55;3.20;;;;;;;;;;5098101;27;43315;-63
2023/07/25 06:37:59;;;;;;;10.13;3.20;;;;;;;;;;5099975;27;41909;-66
2023/07/25 06:40:27;;;;;;;8.02;3.28;;;;;;;;;;5098858;28;41256;-67
2023/07/25 06:42:55;;;;;;;10.68;2.90;;;;;;;;;;5100692;27;42189;-66
2023/07/25 06:45:26;;;;;;;8.77;2.70;;;;;;;;;;5099343;28;40503;-66
2023/07/25 06:47:54;;;;;;;8.50;2.65;;;;;;;;;;5086126;28;39948;-65
2023/07/25 06:50:22;;;;;;;7.90;2.35;;;;;;;;;;5087653;28;41798;-65
2023/07/25 06:52:51;;;;;;;7.93;2.40;;;;;;;;;;5096303;28;43153;-65
2023/07/25 06:55:19;;;;;;;8.43;2.33;;;;;;;;;;5108022;27;40870;-64
2023/07/25 06:57:47;;;;;;;11.88;2.40;;;;;;;;;;5106458;27;42103;-67
2023/07/25 07:00:15;;;;;;;7.85;2.15;;;;;;;;;;5103344;27;42370;-65
2023/07/25 07:02:43;;;;;;;6.53;2.22;;;;;;;;;;5107362;27;43504;-63
2023/07/25 07:05:11;;;;;;;8.98;2.30;;;;;;;;;;5091532;27;42324;-64
2023/07/25 07:07:57;;;;;;;9.35;2.10;;;;;;;;;;5100397;27;42411;-64
2023/07/25 07:10:25;;;;;;;7.65;1.55;;;;;;;;;;5089483;28;41594;-64
2023/07/25 07:12:53;;;;;;;5.25;2.00;;;;;;;;;;5096102;28;43118;-64
2023/07/25 07:15:24;;;;;;;8.05;2.00;;;;;;;;;;5095567;28;41347;-64
2023/07/25 07:17:52;;;;;;;6.68;1.85;;;;;;;;;;5089215;27;41526;-64
2023/07/25 07:20:21;;;;;;;7.40;1.45;;;;;;;;;;5086802;28;41267;-64
2023/07/25 07:22:49;;;;;;;6.32;1.80;;;;;;;;;;5086636;28;41442;-64
2023/07/25 07:25:18;;;;;;;3.65;1.60;;;;;;;;;;5086003;28;43065;-64
2023/07/25 07:27:47;;;;;;;4.85;1.70;;;;;;;;;;5102617;28;39901;-64
2023/07/25 07:30:15;;;;;;;4.97;1.65;;;;;;;;;;5106831;27;42249;-64
2023/07/25 07:32:43;;;;;;;7.03;1.38;;;;;;;;;;5105997;27;42737;-64
2023/07/25 07:35:11;;;;;;;5.75;1.50;;;;;;;;;;5107037;28;40813;-64
2023/07/25 07:37:39;;;;;;;9.43;1.75;;;;;;;;;;5107231;28;41726;-64
2023/07/25 07:40:07;;;;;;;4.80;1.63;;;;;;;;;;5107553;27;41304;-64
2023/07/25 07:42:37;;;;;;;7.13;2.10;;;;;;;;;;5109905;28;41546;-64
2023/07/25 07:45:05;;;;;;;7.32;2.20;;;;;;;;;;5110715;27;42167;-64
2023/07/25 07:47:33;;;;;;;4.93;1.77;;;;;;;;;;5109401;28;42032;-63
2023/07/25 07:50:01;;;;;;;8.85;1.48;;;;;;;;;;5111174;28;41228;-63
2023/07/25 07:52:40;;;;;;;10.95;1.80;;;;;;;;;;5093458;28;42980;-62
2023/07/25 07:55:10;;;;;;;3.65;1.13;;;;;;;;;;5098753;28;42239;-63
2023/07/25 07:57:40;;;;;;;10.25;1.52;;;;;;;;;;5089306;28;41697;-63
2023/07/25 08:00:09;;;;;;;5.28;1.40;;;;;;;;;;5093007;28;42911;-63
2023/07/25 08:02:40;;;;;;;4.35;1.20;;;;;;;;;;5101826;28;41999;-62
2023/07/25 08:05:08;;;;;;;3.90;1.55;;;;;;;;;;5101592;28;42077;-63
2023/07/25 08:07:36;;;;;;;6.03;1.77;;;;;;;;;;5101576;28;42290;-64
2023/07/25 08:10:05;;;;;;;3.95;1.48;;;;;;;;;;5106559;27;41761;-64
2023/07/25 08:12:33;;;;;;;7.57;1.83;;;;;;;;;;5095055;27;43076;-65
2023/07/25 08:15:02;;;;;;;8.23;2.10;;;;;;;;;;5101636;28;41249;-64
2023/07/25 08:17:30;;;;;;;6.78;2.08;;;;;;;;;;5108607;27;41541;-64
2023/07/25 08:19:59;;;;;;;3.33;1.50;;;;;;;;;;5109926;27;43170;-64
2023/07/25 08:22:27;;;;;;;5.07;1.30;;;;;;;;;;5107395;27;41339;-65
2023/07/25 08:24:55;;;;;;;5.65;1.30;;;;;;;;;;5109950;27;42077;-64
2023/07/25 08:27:23;;;;;;;7.60;1.13;;;;;;;;;;5103149;27;41271;-64
2023/07/25 08:29:51;;;;;;;4.45;1.17;;;;;;;;;;5100289;27;41627;-64
2023/07/25 08:32:20;;;;;;;6.68;1.50;;;;;;;;;;5102319;27;42658;-64
2023/07/25 08:34:49;;;;;;;5.68;1.42;;;;;;;;;;5098970;28;41820;-64
2023/07/25 08:37:17;;;;;;;3.55;1.30;;;;;;;;;;5101270;27;42265;-64
2023/07/25 08:39:45;;;;;;;5.38;1.40;;;;;;;;;;5100874;28;42080;-64
2023/07/25 08:42:13;;;;;;;6.18;1.27;;;;;;;;;;5102642;27;41295;-64
2023/07/25 08:44:41;;;;;;;6.50;1.52;;;;;;;;;;5109547;27;41618;-64
2023/07/25 08:47:10;;;;;;;7.38;0.93;;;;;;;;;;5109764;27;41181;-65
2023/07/25 08:49:39;;;;;;;6.22;1.48;;;;;;;;;;5108282;27;41324;-65
2023/07/25 08:52:07;;;;;;;7.25;1.88;;;;;;;;;;5108208;27;42079;-64
2023/07/25 08:54:36;;;;;;;9.35;1.70;;;;;;;;;;5108674;27;41260;-65
2023/07/25 08:57:04;;;;;;;6.32;1.35;;;;;;;;;;5109112;27;41963;-64
2023/07/25 08:59:32;;;;;;;4.63;1.40;;;;;;;;;;5109048;27;43151;-64
2023/07/25 09:02:00;;;;;;;4.53;1.20;;;;;;;;;;5109278;27;41377;-64
2023/07/25 09:04:28;;;;;;;7.88;1.98;;;;;;;;;;5108196;27;41732;-64
2023/07/25 09:06:57;;;;;;;3.30;1.50;;;;;;;;;;5110045;27;33237;-64
2023/07/25 09:09:25;;;;;;;8.00;1.20;;;;;;;;;;5102856;27;41867;-64
2023/07/25 09:11:54;;;;;;;5.68;1.20;;;;;;;;;;5106221;27;42100;-63
2023/07/25 09:14:22;;;;;;;2.33;0.90;;;;;;;;;;5098155;27;41385;-64
2023/07/25 09:16:50;;;;;;;6.57;1.48;;;;;;;;;;5103326;27;41160;-64
2023/07/25 09:19:18;;;;;;;6.53;1.27;;;;;;;;;;5091884;27;42893;-64
2023/07/25 09:21:47;;;;;;;3.10;1.00;;;;;;;;;;5096583;27;40969;-64
2023/07/25 09:24:16;;;;;;;3.65;1.10;;;;;;;;;;5098891;27;42664;-64
2023/07/25 09:26:50;;;;;;;4.47;1.08;;;;;;;;;;5102850;27;43080;-64
2023/07/25 09:29:20;;;;;;;2.67;1.00;;;;;;;;;;5091926;27;41565;-66
2023/07/25 09:31:48;;;;;;;3.35;1.20;;;;;;;;;;5104129;27;42706;-69
2023/07/25 09:34:17;;;;;;;6.22;0.95;;;;;;;;;;5099508;27;42031;-64
2023/07/25 09:36:46;;;;;;;8.63;1.20;;;;;;;;;;5109351;27;41766;-64
2023/07/25 09:39:15;;;;;;;7.32;1.30;;;;;;;;;;5108577;27;42191;-64
2023/07/25 09:41:45;;;;;;;5.60;1.25;;;;;;;;;;5108413;27;41099;-66
2023/07/25 09:44:13;;;;;;;7.35;1.30;;;;;;;;;;5105360;27;41727;-63
2023/07/25 09:46:43;;;;;;;7.32;1.30;;;;;;;;;;5095930;28;43038;-67
2023/07/25 09:49:11;;;;;;;5.57;1.23;;;;;;;;;;5089243;28;41149;-63
2023/07/25 09:51:39;;;;;;;4.15;1.10;;;;;;;;;;5102383;28;42632;-64
2023/07/25 09:54:07;;;;;;;13.27;1.30;;;;;;;;;;5108020;27;41395;-63
2023/07/25 09:56:36;;;;;;;8.20;1.00;;;;;;;;;;5108328;27;41642;-65
2023/07/25 09:59:06;;;;;;;3.60;0.95;;;;;;;;;;5107494;27;43279;-66
2023/07/25 10:01:34;;;;;;;3.53;1.17;;;;;;;;;;5108198;27;41043;-64
2023/07/25 10:04:03;;;;;;;6.00;1.48;;;;;;;;;;5108291;27;41617;-63
2023/07/25 10:06:31;;;;;;;3.80;0.93;;;;;;;;;;5107353;27;41882;-63
2023/07/25 10:08:59;;;;;;;3.30;1.13;;;;;;;;;;5108828;27;41179;-63
2023/07/25 10:11:27;;;;;;;4.68;1.25;;;;;;;;;;5108297;27;41662;-66
2023/07/25 10:13:56;;;;;;;8.38;1.30;;;;;;;;;;5107886;27;40872;-65
2023/07/25 10:16:24;;;;;;;4.03;1.20;;;;;;;;;;5105783;27;41481;-64
2023/07/25 10:18:53;;;;;;;7.65;1.02;;;;;;;;;;5100953;27;43926;-65
2023/07/25 10:21:24;;;;;;;4.75;1.27;;;;;;;;;;5101157;28;41732;-65
2023/07/25 10:23:53;;;;;;;10.02;1.17;;;;;;;;;;5108188;27;41841;-65
2023/07/25 10:26:21;;;;;;;7.95;1.20;;;;;;;;;;5101787;27;42565;-65
2023/07/25 10:28:49;;;;;;;7.60;1.30;;;;;;;;;;5087393;28;41236;-65
2023/07/25 10:31:22;;;;;;;4.57;1.00;;;;;;;;;;5097994;28;41580;-65
2023/07/25 10:33:53;;;;;;;2.80;1.02;;;;;;;;;;5108350;27;42975;-65
2023/07/25 10:36:22;;;;;;;7.30;1.30;;;;;;;;;;5107831;27;41578;-65
2023/07/25 10:38:50;;;;;;;11.90;1.08;;;;;;;;;;5108224;27;42073;-65
2023/07/25 10:41:18;;;;;;;5.28;0.90;;;;;;;;;;5107353;27;41607;-65
2023/07/25 10:43:56;;;;;;;5.43;1.17;;;;;;;;;;5107498;27;41732;-65
2023/07/25 10:46:29;;;;;;;4.30;0.82;;;;;;;;;;5107499;27;42172;-65
2023/07/25 10:48:59;;;;;;;4.30;0.90;;;;;;;;;;5105434;27;40748;-65
2023/07/25 10:51:41;;;;;;;4.57;0.70;;;;;;;;;;5105172;27;41508;-65
2023/07/25 10:54:09;;;;;;;2.90;0.80;;;;;;;;;;5106013;27;41921;-65
2023/07/25 10:56:38;;;;;;;2.28;0.80;;;;;;;;;;5104592;27;42033;-65
2023/07/25 10:59:06;;;;;;;3.25;0.98;;;;;;;;;;5105906;27;42807;-65
2023/07/25 11:01:38;;;;;;;5.47;1.17;;;;;;;;;;5105525;27;42153;-65
2023/07/25 11:04:25;;;;;;;2.47;0.90;;;;;;;;;;5107200;27;41412;-65
2023/07/25 11:06:53;;;;;;;2.05;0.63;;;;;;;;;;5108128;27;42125;-65
2023/07/25 11:09:22;;;;;;;4.10;2.22;;;;;;;;;;5106469;27;42612;-65
2023/07/25 11:11:50;;;;;;;1.85;0.73;;;;;;;;;;5107356;27;41731;-65
2023/07/25 11:14:18;;;;;;;1.65;0.82;;;;;;;;;;5107058;27;43049;-65
2023/07/25 11:16:48;;;;;;;2.90;0.70;;;;;;;;;;5107031;27;42361;-65
2023/07/25 11:19:16;;;;;;;3.20;1.00;;;;;;;;;;5107169;27;42043;-65
2023/07/25 11:21:45;;;;;;;2.05;0.80;;;;;;;;;;5107061;27;42318;-65
2023/07/25 11:24:13;;;;;;;1.95;0.85;;;;;;;;;;5106298;27;42285;-65
2023/07/25 11:26:43;;;;;;;3.20;0.90;;;;;;;;;;5107290;27;42911;-65
2023/07/25 11:29:11;;;;;;;2.17;0.80;;;;;;;;;;5107333;27;41994;-65
2023/07/25 11:31:45;;;;;;;4.07;0.75;;;;;;;;;;5106035;27;41829;-65
2023/07/25 11:34:14;;;;;;;1.92;0.75;;;;;;;;;;5104604;27;42052;-66
2023/07/25 11:36:42;;;;;;;1.92;0.70;;;;;;;;;;5106505;27;41128;-65
2023/07/25 11:39:11;;;;;;;1.27;0.65;;;;;;;;;;5105444;27;41644;-65
2023/07/25 11:41:39;;;;;;;2.42;0.60;;;;;;;;;;5106560;27;40709;-65
2023/07/25 11:44:11;;;;;;;0.73;0.50;;;;;;;;;;5106936;27;42007;-65
2023/07/25 11:46:39;;;;;;;3.80;0.80;;;;;;;;;;5105774;27;41844;-65
2023/07/25 11:49:08;;;;;;;1.85;0.60;;;;;;;;;;5108066;27;20255;-65
2023/07/25 11:51:37;;;;;;;1.25;0.50;;;;;;;;;;5105569;27;42152;-65
2023/07/25 11:54:06;;;;;;;1.83;0.70;;;;;;;;;;5106839;27;41797;-65
2023/07/25 11:56:34;;;;;;;1.60;0.75;;;;;;;;;;5106352;27;41301;-65
2023/07/25 11:59:02;;;;;;;2.50;0.90;;;;;;;;;;5106557;27;42637;-65
2023/07/25 12:01:32;;;;;;;0.98;0.52;;;;;;;;;;5101551;27;42297;-65
2023/07/25 12:04:02;;;;;;;1.83;0.60;;;;;;;;;;5095989;28;41486;-62
2023/07/25 12:06:31;;;;;;;2.97;0.80;;;;;;;;;;5099209;27;40420;-63
2023/07/25 12:09:01;;;;;;;1.23;0.50;;;;;;;;;;5097063;27;41283;-64
2023/07/25 12:11:29;;;;;;;3.53;0.70;;;;;;;;;;5105652;27;41764;-65
2023/07/25 12:13:58;;;;;;;3.30;0.63;;;;;;;;;;5101437;27;41962;-66
2023/07/25 12:16:26;;;;;;;5.55;0.70;;;;;;;;;;5104378;27;41144;-65
2023/07/25 12:18:55;;;;;;;1.58;0.50;;;;;;;;;;5107050;27;41755;-66
2023/07/25 12:21:24;;;;;;;1.40;0.60;;;;;;;;;;5105484;27;42120;-65
2023/07/25 12:23:52;;;;;;;2.58;0.82;;;;;;;;;;5106917;27;41950;-65
2023/07/25 12:26:21;;;;;;;4.32;0.80;;;;;;;;;;5107737;27;42368;-65
2023/07/25 12:28:50;;;;;;;4.13;0.70;;;;;;;;;;5108677;27;41017;-65
2023/07/25 12:31:18;;;;;;;1.73;0.75;;;;;;;;;;5107459;27;41310;-65
2023/07/25 12:33:47;;;;;;;3.20;0.60;;;;;;;;;;5107600;27;42895;-65
2023/07/25 12:36:16;;;;;;;1.45;0.50;;;;;;;;;;5108329;27;41303;-65
2023/07/25 12:38:44;;;;;;;1.58;0.50;;;;;;;;;;5107521;27;41883;-65
2023/07/25 12:41:14;;;;;;;2.08;0.50;;;;;;;;;;5100532;28;41886;-64
2023/07/25 12:43:44;;;;;;;0.90;0.50;;;;;;;;;;5101017;28;40949;-64
2023/07/25 12:46:12;;;;;;;1.45;0.60;;;;;;;;;;5102935;28;41769;-63
2023/07/25 12:48:40;;;;;;;3.65;0.52;;;;;;;;;;5094903;27;41815;-64
2023/07/25 12:51:08;;;;;;;3.72;0.60;;;;;;;;;;5098700;28;41707;-64
2023/07/25 12:53:36;;;;;;;2.50;0.70;;;;;;;;;;5096946;28;42106;-63
2023/07/25 12:56:04;;;;;;;1.48;0.50;;;;;;;;;;5096482;28;42259;-63
2023/07/25 12:58:32;;;;;;;1.67;0.60;;;;;;;;;;5092109;27;42508;-64
2023/07/25 13:01:01;;;;;;;2.97;0.82;;;;;;;;;;5096637;28;41888;-64
2023/07/25 13:03:30;;;;;;;1.45;0.52;;;;;;;;;;5097464;27;39352;-63
2023/07/25 13:05:58;;;;;;;2.67;0.80;;;;;;;;;;5098047;28;42225;-64
2023/07/25 13:08:26;;;;;;;1.80;0.60;;;;;;;;;;5100013;28;43072;-64
2023/07/25 13:10:54;;;;;;;3.53;0.60;;;;;;;;;;5102276;27;42212;-64
2023/07/25 13:13:22;;;;;;;2.08;0.63;;;;;;;;;;5097645;27;42160;-63
2023/07/25 13:15:50;;;;;;;5.35;0.90;;;;;;;;;;5088285;28;42324;-63
2023/07/25 13:18:20;;;;;;;2.10;0.88;;;;;;;;;;5088585;28;41597;-63
2023/07/25 13:20:47;;;;;;;3.75;0.77;;;;;;;;;;5098700;28;41543;-63
2023/07/25 13:23:15;;;;;;;5.13;0.90;;;;;;;;;;5100290;28;40623;-63
2023/07/25 13:25:44;;;;;;;2.60;0.70;;;;;;;;;;5096136;28;43256;-63
2023/07/25 13:28:12;;;;;;;2.25;0.80;;;;;;;;;;5094521;28;41814;-63
2023/07/25 13:30:40;;;;;;;1.52;0.70;;;;;;;;;;5093042;28;42251;-63
2023/07/25 13:33:08;;;;;;;1.85;0.80;;;;;;;;;;5109493;27;42561;-64
2023/07/25 13:35:37;;;;;;;1.83;0.77;;;;;;;;;;5097993;27;41477;-63
2023/07/25 13:38:06;;;;;;;4.90;1.13;;;;;;;;;;5087301;28;41778;-63
2023/07/25 13:40:34;;;;;;;2.55;0.68;;;;;;;;;;5101987;28;42347;-63
2023/07/25 13:43:02;;;;;;;1.23;0.52;;;;;;;;;;5109543;27;42252;-63
2023/07/25 13:45:30;;;;;;;1.73;0.80;;;;;;;;;;5107387;27;41827;-64
2023/07/25 13:48:17;;;;;;;2.92;0.73;;;;;;;;;;5108738;27;42614;-63
2023/07/25 13:50:46;;;;;;;2.20;0.63;;;;;;;;;;5108937;27;41221;-63
2023/07/25 13:53:20;;;;;;;1.83;0.68;;;;;;;;;;5107888;27;41720;-64
2023/07/25 13:55:48;;;;;;;2.63;0.80;;;;;;;;;;5108246;27;40712;-63
2023/07/25 13:58:16;;;;;;;4.50;1.00;;;;;;;;;;5108081;27;41905;-63
2023/07/25 14:00:47;;;;;;;2.30;0.50;;;;;;;;;;5108964;27;41929;-64
2023/07/25 14:03:18;;;;;;;3.38;0.70;;;;;;;;;;5108668;27;39603;-63
2023/07/25 14:05:47;;;;;;;4.15;0.85;;;;;;;;;;5107481;27;41865;-64
2023/07/25 14:08:15;;;;;;;3.17;0.70;;;;;;;;;;5108360;27;42145;-63
2023/07/25 14:10:43;;;;;;;4.80;0.80;;;;;;;;;;5108249;27;41912;-64
2023/07/25 14:13:11;;;;;;;5.18;0.90;;;;;;;;;;5108383;27;42381;-64
2023/07/25 14:15:40;;;;;;;5.15;0.80;;;;;;;;;;5108131;27;41587;-63
2023/07/25 14:18:08;;;;;;;3.92;1.08;;;;;;;;;;5107201;27;41707;-63
2023/07/25 14:20:38;;;;;;;2.63;0.60;;;;;;;;;;5094838;28;42433;-63
2023/07/25 14:23:07;;;;;;;3.03;0.88;;;;;;;;;;5093717;28;42394;-63
2023/07/25 14:25:35;;;;;;;3.58;0.75;;;;;;;;;;5094549;28;42681;-63
2023/07/25 14:28:03;;;;;;;1.25;0.55;;;;;;;;;;5099279;28;41882;-63
2023/07/25 14:30:33;;;;;;;4.75;0.60;;;;;;;;;;5099175;27;41934;-63
2023/07/25 14:33:01;;;;;;;1.73;0.65;;;;;;;;;;5100513;27;42222;-64
2023/07/25 14:35:30;;;;;;;2.45;0.63;;;;;;;;;;5098976;27;41515;-63
2023/07/25 14:37:57;;;;;;;2.33;0.68;;;;;;;;;;5098540;27;41680;-64
2023/07/25 14:40:30;;;;;;;0.88;0.50;;;;;;;;;;5094996;27;42023;-63
2023/07/25 14:42:57;;;;;;;2.08;0.70;;;;;;;;;;5093855;28;40986;-63
2023/07/25 14:45:25;;;;;;;3.08;0.60;;;;;;;;;;5092781;28;41644;-63
2023/07/25 14:47:54;;;;;;;1.83;0.70;;;;;;;;;;5092370;28;41974;-63
2023/07/25 14:50:23;;;;;;;3.08;0.50;;;;;;;;;;5094611;27;40048;-64